sensor_id;sensor_type;location;lat;lon;timestamp;pressure;altitude;pressure_sealevel;temperature;humidity
35676;BME280;21790;42.668;23.298;2023-03-22T00:00:06;94359.31;;;16.69;50.75
35676;BME280;21790;42.668;23.298;2023-03-22T00:02:36;94356.25;;;16.72;50.84
35676;BME280;21790;42.668;23.298;2023-03-22T00:05:01;94354.44;;;16.75;50.95
35676;BME280;21790;42.668;23.298;2023-03-22T00:07:27;94355.22;;;16.70;50.82
35676;BME280;21790;42.668;23.298;2023-03-22T00:09:52;94343.06;;;16.67;50.89
35676;BME280;21790;42.668;23.298;2023-03-22T00:12:17;94354.19;;;16.90;50.11
35676;BME280;21790;42.668;23.298;2023-03-22T00:14:43;94353.44;;;16.78;50.54
35676;BME280;21790;42.668;23.298;2023-03-22T00:17:09;94354.44;;;16.75;50.70
35676;BME280;21790;42.668;23.298;2023-03-22T00:19:35;94346.63;;;16.68;51.33
35676;BME280;21790;42.668;23.298;2023-03-22T00:22:01;94350.88;;;16.80;51.01
35676;BME280;21790;42.668;23.298;2023-03-22T00:24:30;94347.59;;;16.76;50.95
35676;BME280;21790;42.668;23.298;2023-03-22T00:26:55;94346.84;;;16.81;50.78
35676;BME280;21790;42.668;23.298;2023-03-22T00:29:22;94348.88;;;16.69;51.01
35676;BME280;21790;42.668;23.298;2023-03-22T00:31:48;94343.06;;;16.62;51.18
35676;BME280;21790;42.668;23.298;2023-03-22T00:34:14;94350.16;;;16.74;51.17
35676;BME280;21790;42.668;23.298;2023-03-22T00:36:39;94341.28;;;16.70;51.32
35676;BME280;21790;42.668;23.298;2023-03-22T00:39:04;94344.59;;;16.63;51.38
35676;BME280;21790;42.668;23.298;2023-03-22T00:41:30;94346.38;;;16.60;51.35
35676;BME280;21790;42.668;23.298;2023-03-22T00:43:55;94338.47;;;16.53;51.52
35676;BME280;21790;42.668;23.298;2023-03-22T00:46:20;94332.66;;;16.57;51.75
35676;BME280;21790;42.668;23.298;2023-03-22T00:48:46;94341.53;;;16.50;51.68
35676;BME280;21790;42.668;23.298;2023-03-22T00:51:12;94334.19;;;16.47;51.49
35676;BME280;21790;42.668;23.298;2023-03-22T00:53:38;94335.97;;;16.44;51.68
35676;BME280;21790;42.668;23.298;2023-03-22T00:56:04;94335.22;;;16.60;51.42
35676;BME280;21790;42.668;23.298;2023-03-22T00:58:30;94335.97;;;16.61;51.32
35676;BME280;21790;42.668;23.298;2023-03-22T01:00:55;94331.41;;;16.69;51.23
35676;BME280;21790;42.668;23.298;2023-03-22T01:03:20;94331.16;;;16.67;51.23
35676;BME280;21790;42.668;23.298;2023-03-22T01:05:46;94332.16;;;16.64;51.20
35676;BME280;21790;42.668;23.298;2023-03-22T01:08:13;94329.88;;;16.57;51.26
35676;BME280;21790;42.668;23.298;2023-03-22T01:10:39;94328.09;;;16.59;51.15
35676;BME280;21790;42.668;23.298;2023-03-22T01:13:05;94329.88;;;16.46;51.55
35676;BME280;21790;42.668;23.298;2023-03-22T01:15:31;94325.81;;;16.58;51.36
35676;BME280;21790;42.668;23.298;2023-03-22T01:17:57;94323.28;;;16.60;51.32
35676;BME280;21790;42.668;23.298;2023-03-22T01:20:22;94329.09;;;16.56;51.26
35676;BME280;21790;42.668;23.298;2023-03-22T01:22:48;94322.28;;;16.52;51.54
35676;BME280;21790;42.668;23.298;2023-03-22T01:25:13;94320.75;;;16.40;51.58
35676;BME280;21790;42.668;23.298;2023-03-22T01:27:39;94321.50;;;16.46;51.54
35676;BME280;21790;42.668;23.298;2023-03-22T01:30:05;94320.50;;;16.43;51.47
35676;BME280;21790;42.668;23.298;2023-03-22T01:32:30;94316.69;;;16.52;51.45
35676;BME280;21790;42.668;23.298;2023-03-22T01:34:56;94310.59;;;16.59;51.12
35676;BME280;21790;42.668;23.298;2023-03-22T01:37:21;94313.16;;;16.46;51.42
35676;BME280;21790;42.668;23.298;2023-03-22T01:39:49;94313.63;;;16.50;51.23
35676;BME280;21790;42.668;23.298;2023-03-22T01:42:15;94309.59;;;16.62;51.00
35676;BME280;21790;42.668;23.298;2023-03-22T01:44:41;94311.34;;;16.65;50.71
35676;BME280;21790;42.668;23.298;2023-03-22T01:47:08;94311.88;;;16.58;50.72
35676;BME280;21790;42.668;23.298;2023-03-22T01:49:35;94313.91;;;16.46;51.26
35676;BME280;21790;42.668;23.298;2023-03-22T01:52:10;94306.81;;;16.51;51.00
35676;BME280;21790;42.668;23.298;2023-03-22T01:54:41;94305.78;;;16.54;50.95
35676;BME280;21790;42.668;23.298;2023-03-22T01:57:07;94299.97;;;16.52;51.14
35676;BME280;21790;42.668;23.298;2023-03-22T01:59:33;94306.06;;;16.61;50.93
35676;BME280;21790;42.668;23.298;2023-03-22T02:01:59;94310.38;;;16.62;50.90
35676;BME280;21790;42.668;23.298;2023-03-22T02:04:26;94309.06;;;16.58;51.12
35676;BME280;21790;42.668;23.298;2023-03-22T02:06:58;94309.56;;;16.79;50.72
35676;BME280;21790;42.668;23.298;2023-03-22T02:09:25;94305.28;;;16.61;50.94
35676;BME280;21790;42.668;23.298;2023-03-22T02:30:32;94313.38;;;16.53;50.79
35676;BME280;21790;42.668;23.298;2023-03-22T02:41:46;94317.97;;;16.45;51.14
35676;BME280;21790;42.668;23.298;2023-03-22T02:44:41;94316.72;;;16.63;50.83
35676;BME280;21790;42.668;23.298;2023-03-22T02:53:00;94320.25;;;16.41;50.86
35676;BME280;21790;42.668;23.298;2023-03-22T02:55:43;94334.69;;;16.56;50.76
35676;BME280;21790;42.668;23.298;2023-03-22T02:58:11;94335.69;;;16.53;50.77
35676;BME280;21790;42.668;23.298;2023-03-22T03:00:42;94322.28;;;16.52;50.70
35676;BME280;21790;42.668;23.298;2023-03-22T03:03:11;94327.34;;;16.37;51.25
35676;BME280;21790;42.668;23.298;2023-03-22T03:05:42;94323.28;;;16.38;51.05
35676;BME280;21790;42.668;23.298;2023-03-22T03:08:11;94325.31;;;16.43;50.95
35676;BME280;21790;42.668;23.298;2023-03-22T03:10:39;94330.88;;;16.43;51.04
35676;BME280;21790;42.668;23.298;2023-03-22T03:13:09;94328.38;;;16.28;51.19
35676;BME280;21790;42.668;23.298;2023-03-22T03:15:37;94327.38;;;16.25;51.22
35676;BME280;21790;42.668;23.298;2023-03-22T03:26:47;94330.88;;;16.43;50.49
35676;BME280;21790;42.668;23.298;2023-03-22T03:29:24;94335.97;;;16.16;50.94
35676;BME280;21790;42.668;23.298;2023-03-22T03:37:19;94343.34;;;16.42;50.66
35676;BME280;21790;42.668;23.298;2023-03-22T03:39:58;94334.19;;;16.41;50.91
35676;BME280;21790;42.668;23.298;2023-03-22T03:42:27;94346.88;;;16.20;51.24
35676;BME280;21790;42.668;23.298;2023-03-22T03:44:54;94343.34;;;16.14;50.89
35676;BME280;21790;42.668;23.298;2023-03-22T03:47:21;94348.91;;;16.25;50.73
35676;BME280;21790;42.668;23.298;2023-03-22T03:49:47;94343.56;;;16.10;51.02
35676;BME280;21790;42.668;23.298;2023-03-22T03:52:13;94349.66;;;16.09;51.54
35676;BME280;21790;42.668;23.298;2023-03-22T03:54:39;94347.63;;;16.04;51.47
35676;BME280;21790;42.668;23.298;2023-03-22T03:57:06;94351.44;;;16.23;51.26
35676;BME280;21790;42.668;23.298;2023-03-22T03:59:32;94344.59;;;16.13;51.35
35676;BME280;21790;42.668;23.298;2023-03-22T04:01:57;94349.66;;;16.20;50.88
35676;BME280;21790;42.668;23.298;2023-03-22T04:04:27;94342.56;;;16.19;50.83
35676;BME280;21790;42.668;23.298;2023-03-22T04:06:58;94350.41;;;16.15;51.05
35676;BME280;21790;42.668;23.298;2023-03-22T04:09:25;94355.25;;;16.25;50.80
35676;BME280;21790;42.668;23.298;2023-03-22T04:11:53;94358.25;;;16.11;51.10
35676;BME280;21790;42.668;23.298;2023-03-22T04:14:19;94356.25;;;16.22;50.97
35676;BME280;21790;42.668;23.298;2023-03-22T04:16:45;94356.00;;;16.31;50.61
35676;BME280;21790;42.668;23.298;2023-03-22T04:19:12;94361.56;;;16.20;50.96
35676;BME280;21790;42.668;23.298;2023-03-22T04:21:39;94363.34;;;16.12;51.27
35676;BME280;21790;42.668;23.298;2023-03-22T04:24:05;94364.09;;;16.13;50.94
35676;BME280;21790;42.668;23.298;2023-03-22T04:26:30;94357.00;;;16.23;50.76
35676;BME280;21790;42.668;23.298;2023-03-22T04:28:56;94359.28;;;16.13;51.12
35676;BME280;21790;42.668;23.298;2023-03-22T04:31:23;94365.88;;;16.32;50.47
35676;BME280;21790;42.668;23.298;2023-03-22T04:33:49;94360.28;;;16.10;50.53
35676;BME280;21790;42.668;23.298;2023-03-22T04:36:23;94372.72;;;16.26;50.88
35676;BME280;21790;42.668;23.298;2023-03-22T04:38:50;94368.16;;;16.28;50.71
35676;BME280;21790;42.668;23.298;2023-03-22T04:41:17;94367.41;;;16.17;50.86
35676;BME280;21790;42.668;23.298;2023-03-22T04:43:43;94372.47;;;16.18;50.76
35676;BME280;21790;42.668;23.298;2023-03-22T04:46:11;94374.75;;;16.09;50.91
35676;BME280;21790;42.668;23.298;2023-03-22T04:48:39;94377.56;;;16.20;50.72
35676;BME280;21790;42.668;23.298;2023-03-22T04:51:06;94377.53;;;16.03;51.32
35676;BME280;21790;42.668;23.298;2023-03-22T04:53:33;94380.56;;;16.16;50.91
35676;BME280;21790;42.668;23.298;2023-03-22T04:56:08;94371.97;;;16.03;51.31
35676;BME280;21790;42.668;23.298;2023-03-22T04:58:36;94386.66;;;16.20;51.18
35676;BME280;21790;42.668;23.298;2023-03-22T05:01:03;94388.44;;;16.18;51.11
35676;BME280;21790;42.668;23.298;2023-03-22T05:03:29;94385.38;;;16.16;51.05
35676;BME280;21790;42.668;23.298;2023-03-22T05:05:57;94398.31;;;16.19;51.17
35676;BME280;21790;42.668;23.298;2023-03-22T05:08:24;94386.63;;;16.09;51.09
35676;BME280;21790;42.668;23.298;2023-03-22T05:10:54;94392.75;;;16.30;50.98
35676;BME280;21790;42.668;23.298;2023-03-22T05:13:21;94383.63;;;16.24;50.87
35676;BME280;21790;42.668;23.298;2023-03-22T05:15:47;94385.38;;;16.16;50.83
35676;BME280;21790;42.668;23.298;2023-03-22T05:18:18;94394.78;;;16.18;50.80
35676;BME280;21790;42.668;23.298;2023-03-22T05:20:47;94394.03;;;16.35;50.82
35676;BME280;21790;42.668;23.298;2023-03-22T05:23:13;94395.78;;;16.26;50.89
35676;BME280;21790;42.668;23.298;2023-03-22T05:25:44;94404.69;;;16.30;50.39
35676;BME280;21790;42.668;23.298;2023-03-22T05:28:12;94406.69;;;16.30;50.38
35676;BME280;21790;42.668;23.298;2023-03-22T05:30:40;94409.50;;;16.36;50.29
35676;BME280;21790;42.668;23.298;2023-03-22T05:33:05;94415.84;;;16.30;50.59
35676;BME280;21790;42.668;23.298;2023-03-22T05:35:33;94413.03;;;16.30;50.47
35676;BME280;21790;42.668;23.298;2023-03-22T05:37:59;94407.47;;;16.42;50.30
35676;BME280;21790;42.668;23.298;2023-03-22T05:40:25;94414.53;;;16.37;50.44
35676;BME280;21790;42.668;23.298;2023-03-22T05:42:52;94415.56;;;16.51;50.56
35676;BME280;21790;42.668;23.298;2023-03-22T05:45:18;94418.38;;;16.40;50.72
35676;BME280;21790;42.668;23.298;2023-03-22T05:47:44;94412.53;;;16.38;50.84
35676;BME280;21790;42.668;23.298;2023-03-22T05:50:12;94412.28;;;16.36;50.88
35676;BME280;21790;42.668;23.298;2023-03-22T05:52:38;94422.41;;;16.33;50.90
35676;BME280;21790;42.668;23.298;2023-03-22T05:55:05;94414.53;;;16.31;50.73
35676;BME280;21790;42.668;23.298;2023-03-22T05:57:31;94431.03;;;16.41;50.55
35676;BME280;21790;42.668;23.298;2023-03-22T05:59:57;94431.53;;;16.39;50.59
35676;BME280;21790;42.668;23.298;2023-03-22T06:02:23;94436.09;;;16.31;50.82
35676;BME280;21790;42.668;23.298;2023-03-22T06:04:49;94437.13;;;16.33;50.58
35676;BME280;21790;42.668;23.298;2023-03-22T06:07:16;94437.88;;;16.40;50.69
35676;BME280;21790;42.668;23.298;2023-03-22T06:09:42;94443.16;;;16.21;50.93
35676;BME280;21790;42.668;23.298;2023-03-22T06:12:07;94438.31;;;16.05;51.20
35676;BME280;21790;42.668;23.298;2023-03-22T06:14:33;94440.13;;;16.13;51.04
35676;BME280;21790;42.668;23.298;2023-03-22T06:16:59;94440.16;;;16.24;51.10
35676;BME280;21790;42.668;23.298;2023-03-22T06:19:25;94442.19;;;16.24;51.26
35676;BME280;21790;42.668;23.298;2023-03-22T06:21:52;94444.22;;;16.35;50.72
35676;BME280;21790;42.668;23.298;2023-03-22T06:24:18;94454.63;;;16.40;50.91
35676;BME280;21790;42.668;23.298;2023-03-22T06:26:44;94439.44;;;16.74;54.50
35676;BME280;21790;42.668;23.298;2023-03-22T06:29:10;94438.63;;;17.18;50.92
35676;BME280;21790;42.668;23.298;2023-03-22T06:31:35;94439.31;;;17.41;49.36
35676;BME280;21790;42.668;23.298;2023-03-22T06:34:01;94442.59;;;17.56;48.21
35676;BME280;21790;42.668;23.298;2023-03-22T06:36:28;94446.69;;;17.44;48.38
35676;BME280;21790;42.668;23.298;2023-03-22T06:38:53;94448.47;;;17.36;48.55
35676;BME280;21790;42.668;23.298;2023-03-22T06:41:23;94447.50;;;17.22;49.02
35676;BME280;21790;42.668;23.298;2023-03-22T06:43:49;94450.59;;;16.96;49.59
35676;BME280;21790;42.668;23.298;2023-03-22T06:46:15;94457.94;;;16.99;49.47
35676;BME280;21790;42.668;23.298;2023-03-22T06:57:32;94459.47;;;16.78;50.37
35676;BME280;21790;42.668;23.298;2023-03-22T07:00:03;94469.38;;;16.79;50.40
35676;BME280;21790;42.668;23.298;2023-03-22T07:02:32;94476.47;;;16.91;50.29
35676;BME280;21790;42.668;23.298;2023-03-22T07:11:34;94481.31;;;16.96;50.23
35676;BME280;21790;42.668;23.298;2023-03-22T07:17:20;94480.53;;;17.01;50.30
35676;BME280;21790;42.668;23.298;2023-03-22T07:19:51;94487.63;;;16.97;50.07
35676;BME280;21790;42.668;23.298;2023-03-22T07:22:21;94482.81;;;16.86;50.57
35676;BME280;21790;42.668;23.298;2023-03-22T07:24:51;94481.31;;;16.85;49.95
35676;BME280;21790;42.668;23.298;2023-03-22T07:27:24;94499.56;;;16.92;49.66
35676;BME280;21790;42.668;23.298;2023-03-22T07:30:07;94496.00;;;16.97;49.49
35676;BME280;21790;42.668;23.298;2023-03-22T07:32:39;94494.25;;;16.88;50.05
35676;BME280;21790;42.668;23.298;2023-03-22T07:35:06;94501.34;;;16.78;50.27
35676;BME280;21790;42.668;23.298;2023-03-22T07:37:37;94499.31;;;16.84;50.07
35676;BME280;21790;42.668;23.298;2023-03-22T07:40:16;94503.38;;;16.83;50.17
35676;BME280;21790;42.668;23.298;2023-03-22T07:42:57;94490.19;;;16.78;49.75
35676;BME280;21790;42.668;23.298;2023-03-22T07:45:29;94506.41;;;16.68;50.04
35676;BME280;21790;42.668;23.298;2023-03-22T08:03:48;94514.25;;;16.59;49.29
35676;BME280;21790;42.668;23.298;2023-03-22T08:06:18;94513.78;;;16.88;49.16
35676;BME280;21790;42.668;23.298;2023-03-22T08:08:47;94508.44;;;16.68;49.80
35676;BME280;21790;42.668;23.298;2023-03-22T08:11:15;94514.03;;;16.79;49.40
35676;BME280;21790;42.668;23.298;2023-03-22T08:13:45;94504.91;;;16.95;49.14
35676;BME280;21790;42.668;23.298;2023-03-22T08:16:27;94506.94;;;16.89;49.61
35676;BME280;21790;42.668;23.298;2023-03-22T08:19:16;94520.63;;;16.76;49.79
35676;BME280;21790;42.668;23.298;2023-03-22T08:25:09;94523.91;;;16.86;49.84
35676;BME280;21790;42.668;23.298;2023-03-22T08:27:35;94527.13;;;16.45;50.35
35676;BME280;21790;42.668;23.298;2023-03-22T08:30:00;94525.56;;;16.27;50.61
35676;BME280;21790;42.668;23.298;2023-03-22T08:32:49;94523.09;;;16.46;50.38
35676;BME280;21790;42.668;23.298;2023-03-22T08:38:38;94530.13;;;16.25;51.38
35676;BME280;21790;42.668;23.298;2023-03-22T08:41:04;94529.38;;;16.30;51.40
35676;BME280;21790;42.668;23.298;2023-03-22T08:46:54;94529.94;;;16.45;51.04
35676;BME280;21790;42.668;23.298;2023-03-22T08:52:54;94532.00;;;16.61;51.41
35676;BME280;21790;42.668;23.298;2023-03-22T08:55:20;94535.75;;;16.42;51.43
35676;BME280;21790;42.668;23.298;2023-03-22T09:01:10;94545.34;;;16.29;52.21
35676;BME280;21790;42.668;23.298;2023-03-22T09:09:10;94515.69;;;16.32;52.31
35676;BME280;21790;42.668;23.298;2023-03-22T09:11:38;94538.25;;;16.34;52.53
35676;BME280;21790;42.668;23.298;2023-03-22T09:14:08;94547.63;;;16.37;52.23
35676;BME280;21790;42.668;23.298;2023-03-22T09:16:53;94541.06;;;16.34;52.57
35676;BME280;21790;42.668;23.298;2023-03-22T09:19:19;94552.69;;;16.27;52.46
35676;BME280;21790;42.668;23.298;2023-03-22T09:22:05;94551.75;;;16.47;52.05
35676;BME280;21790;42.668;23.298;2023-03-22T09:28:09;94535.72;;;16.30;52.05
35676;BME280;21790;42.668;23.298;2023-03-22T09:44:38;94547.44;;;16.46;52.23
35676;BME280;21790;42.668;23.298;2023-03-22T09:47:13;94553.47;;;16.33;52.40
35676;BME280;21790;42.668;23.298;2023-03-22T09:56:34;94548.94;;;16.36;52.18
35676;BME280;21790;42.668;23.298;2023-03-22T10:06:22;94551.00;;;16.52;52.09
35676;BME280;21790;42.668;23.298;2023-03-22T10:21:11;94562.91;;;16.52;51.23
35676;BME280;21790;42.668;23.298;2023-03-22T10:30:38;94559.97;;;17.11;49.67
35676;BME280;21790;42.668;23.298;2023-03-22T10:36:34;94555.66;;;16.94;47.94
35676;BME280;21790;42.668;23.298;2023-03-22T10:45:15;94546.78;;;17.01;48.36
35676;BME280;21790;42.668;23.298;2023-03-22T11:07:05;94547.53;;;17.01;48.16
35676;BME280;21790;42.668;23.298;2023-03-22T11:09:31;94557.16;;;16.89;48.29
35676;BME280;21790;42.668;23.298;2023-03-22T11:11:58;94545.25;;;16.89;48.60
35676;BME280;21790;42.668;23.298;2023-03-22T11:14:33;94555.66;;;17.10;48.78
35676;BME280;21790;42.668;23.298;2023-03-22T11:17:07;94548.81;;;17.00;49.36
35676;BME280;21790;42.668;23.298;2023-03-22T11:19:36;94553.09;;;16.79;49.97
35676;BME280;21790;42.668;23.298;2023-03-22T11:22:34;94549.56;;;17.06;49.89
35676;BME280;21790;42.668;23.298;2023-03-22T11:25:43;94551.81;;;16.91;49.49
35676;BME280;21790;42.668;23.298;2023-03-22T11:31:00;94553.34;;;16.98;48.33
35676;BME280;21790;42.668;23.298;2023-03-22T11:33:26;94534.56;;;16.82;48.08
35676;BME280;21790;42.668;23.298;2023-03-22T11:35:57;94544.47;;;16.94;49.01
35676;BME280;21790;42.668;23.298;2023-03-22T11:38:45;94543.97;;;16.79;49.58
35676;BME280;21790;42.668;23.298;2023-03-22T11:41:38;94552.34;;;17.06;49.28
35676;BME280;21790;42.668;23.298;2023-03-22T11:44:36;94533.06;;;17.08;49.88
35676;BME280;21790;42.668;23.298;2023-03-22T11:50:27;94543.22;;;17.00;50.58
35676;BME280;21790;42.668;23.298;2023-03-22T11:53:02;94537.88;;;17.08;50.11
35676;BME280;21790;42.668;23.298;2023-03-22T11:58:05;94542.94;;;16.98;50.75
35676;BME280;21790;42.668;23.298;2023-03-22T12:00:34;94539.94;;;16.96;50.64
35676;BME280;21790;42.668;23.298;2023-03-22T12:09:02;94546.25;;;17.19;50.04
35676;BME280;21790;42.668;23.298;2023-03-22T12:12:09;94536.34;;;17.35;50.14
35676;BME280;21790;42.668;23.298;2023-03-22T12:21:13;94537.88;;;17.30;50.06
35676;BME280;21790;42.668;23.298;2023-03-22T12:23:41;94531.78;;;17.32;49.69
35676;BME280;21790;42.668;23.298;2023-03-22T12:26:24;94529.75;;;17.04;49.08
35676;BME280;21790;42.668;23.298;2023-03-22T12:29:05;94522.91;;;17.00;48.10
35676;BME280;21790;42.668;23.298;2023-03-22T12:34:54;94530.03;;;17.01;48.06
35676;BME280;21790;42.668;23.298;2023-03-22T12:44:26;94522.91;;;17.05;47.50
35676;BME280;21790;42.668;23.298;2023-03-22T13:02:32;94521.38;;;17.15;46.81
35676;BME280;21790;42.668;23.298;2023-03-22T13:05:05;94511.72;;;17.33;46.87
35676;BME280;21790;42.668;23.298;2023-03-22T13:11:04;94512.22;;;17.43;46.60
35676;BME280;21790;42.668;23.298;2023-03-22T13:13:55;94511.72;;;17.33;46.22
35676;BME280;21790;42.668;23.298;2023-03-22T13:16:54;94513.72;;;17.61;45.88
35676;BME280;21790;42.668;23.298;2023-03-22T13:20:19;94512.66;;;17.80;45.62
35676;BME280;21790;42.668;23.298;2023-03-22T13:25:36;94510.16;;;17.66;46.53
35676;BME280;21790;42.668;23.298;2023-03-22T13:28:20;94497.69;;;17.72;45.34
35676;BME280;21790;42.668;23.298;2023-03-22T13:30:50;94514.47;;;17.72;46.09
35676;BME280;21790;42.668;23.298;2023-03-22T13:33:34;94507.06;;;17.80;46.40
35676;BME280;21790;42.668;23.298;2023-03-22T13:39:17;94507.59;;;17.56;47.00
35676;BME280;21790;42.668;23.298;2023-03-22T13:45:07;94507.56;;;17.79;46.65
35676;BME280;21790;42.668;23.298;2023-03-22T13:50:22;94482.00;;;17.36;46.49
35676;BME280;21790;42.668;23.298;2023-03-22T13:52:57;94507.13;;;17.30;46.54
35676;BME280;21790;42.668;23.298;2023-03-22T13:58:36;94509.13;;;17.69;45.73
35676;BME280;21790;42.668;23.298;2023-03-22T14:01:28;94508.88;;;17.72;45.85
35676;BME280;21790;42.668;23.298;2023-03-22T14:03:58;94508.91;;;17.50;46.53
35676;BME280;21790;42.668;23.298;2023-03-22T14:06:34;94506.66;;;17.15;47.70
35676;BME280;21790;42.668;23.298;2023-03-22T14:15:05;94511.47;;;17.26;46.64
35676;BME280;21790;42.668;23.298;2023-03-22T14:17:44;94495.19;;;17.41;46.26
35676;BME280;21790;42.668;23.298;2023-03-22T14:23:53;94512.69;;;17.64;46.45
35676;BME280;21790;42.668;23.298;2023-03-22T14:26:38;94510.34;;;17.84;46.25
35676;BME280;21790;42.668;23.298;2023-03-22T14:29:44;94505.31;;;17.77;46.91
35676;BME280;21790;42.668;23.298;2023-03-22T14:32:29;94509.41;;;17.65;46.39
35676;BME280;21790;42.668;23.298;2023-03-22T14:38:45;94525.81;;;17.91;45.78
35676;BME280;21790;42.668;23.298;2023-03-22T14:45:00;94521.75;;;17.92;45.79
35676;BME280;21790;42.668;23.298;2023-03-22T14:54:25;94525.44;;;16.92;45.53
35676;BME280;21790;42.668;23.298;2023-03-22T15:00:38;94518.03;;;17.50;44.65
35676;BME280;21790;42.668;23.298;2023-03-22T15:03:08;94517.03;;;17.42;45.22
35676;BME280;21790;42.668;23.298;2023-03-22T15:05:41;94525.69;;;16.89;45.90
35676;BME280;21790;42.668;23.298;2023-03-22T15:10:56;94526.19;;;17.21;45.82
35676;BME280;21790;42.668;23.298;2023-03-22T15:13:24;94521.66;;;17.18;45.40
35676;BME280;21790;42.668;23.298;2023-03-22T15:15:51;94526.19;;;17.32;45.44
35676;BME280;21790;42.668;23.298;2023-03-22T15:18:20;94515.50;;;17.47;44.95
35676;BME280;21790;42.668;23.298;2023-03-22T15:20:48;94518.84;;;16.67;46.00
35676;BME280;21790;42.668;23.298;2023-03-22T15:26:05;94514.53;;;17.17;45.64
35676;BME280;21790;42.668;23.298;2023-03-22T15:28:40;94517.53;;;17.30;44.99
35676;BME280;21790;42.668;23.298;2023-03-22T15:31:20;94521.13;;;17.13;46.81
35676;BME280;21790;42.668;23.298;2023-03-22T15:33:50;94515.16;;;17.84;49.68
35676;BME280;21790;42.668;23.298;2023-03-22T15:36:32;94516.50;;;18.29;43.57
35676;BME280;21790;42.668;23.298;2023-03-22T15:39:54;94518.06;;;18.25;42.65
35676;BME280;21790;42.668;23.298;2023-03-22T17:24:58;94596.78;;;17.32;49.94
35676;BME280;21790;42.668;23.298;2023-03-22T17:27:24;94598.53;;;17.46;47.66
35676;BME280;21790;42.668;23.298;2023-03-22T17:29:50;94604.41;;;17.65;47.28
35676;BME280;21790;42.668;23.298;2023-03-22T17:32:16;94610.47;;;17.75;46.32
35676;BME280;21790;42.668;23.298;2023-03-22T17:34:44;94597.22;;;18.03;43.38
35676;BME280;21790;42.668;23.298;2023-03-22T17:37:13;94607.41;;;17.78;43.46
35676;BME280;21790;42.668;23.298;2023-03-22T18:27:32;94653.38;;;15.86;46.89
35676;BME280;21790;42.668;23.298;2023-03-22T18:33:17;94656.13;;;16.29;46.57
35676;BME280;21790;42.668;23.298;2023-03-22T18:36:03;94662.66;;;16.20;46.96
35676;BME280;21790;42.668;23.298;2023-03-22T18:47:02;94655.56;;;15.77;47.04
35676;BME280;21790;42.668;23.298;2023-03-22T18:49:28;94665.16;;;15.70;47.31
35676;BME280;21790;42.668;23.298;2023-03-22T18:51:56;94658.75;;;16.01;46.38
35676;BME280;21790;42.668;23.298;2023-03-22T18:54:21;94653.25;;;16.12;46.18
35676;BME280;21790;42.668;23.298;2023-03-22T18:56:47;94662.88;;;16.11;46.31
35676;BME280;21790;42.668;23.298;2023-03-22T18:59:12;94663.34;;;16.04;46.43
35676;BME280;21790;42.668;23.298;2023-03-22T19:01:38;94659.03;;;16.03;46.02
35676;BME280;21790;42.668;23.298;2023-03-22T19:04:04;94659.59;;;16.13;45.75
35676;BME280;21790;42.668;23.298;2023-03-22T19:06:31;94666.16;;;16.10;45.55
35676;BME280;21790;42.668;23.298;2023-03-22T19:08:58;94660.69;;;15.84;46.66
35676;BME280;21790;42.668;23.298;2023-03-22T19:11:24;94663.00;;;15.91;46.85
35676;BME280;21790;42.668;23.298;2023-03-22T19:13:49;94666.69;;;15.77;46.82
35676;BME280;21790;42.668;23.298;2023-03-22T19:16:17;94657.09;;;15.78;46.95
35676;BME280;21790;42.668;23.298;2023-03-22T19:18:43;94655.56;;;15.77;46.40
35676;BME280;21790;42.668;23.298;2023-03-22T19:21:16;94659.91;;;15.83;46.59
35676;BME280;21790;42.668;23.298;2023-03-22T19:26:53;94639.97;;;15.54;47.08
35676;BME280;21790;42.668;23.298;2023-03-22T19:29:20;94656.75;;;15.65;47.28
35676;BME280;21790;42.668;23.298;2023-03-22T19:31:45;94647.31;;;15.57;47.19
35676;BME280;21790;42.668;23.298;2023-03-22T19:34:11;94647.56;;;15.53;47.64
35676;BME280;21790;42.668;23.298;2023-03-22T19:45:04;94641.22;;;15.53;47.53
35676;BME280;21790;42.668;23.298;2023-03-22T19:55:43;94640.56;;;15.69;47.32
35676;BME280;21790;42.668;23.298;2023-03-22T19:58:34;94634.81;;;15.78;46.91
35676;BME280;21790;42.668;23.298;2023-03-22T20:04:22;94641.75;;;15.57;46.77
35676;BME280;21790;42.668;23.298;2023-03-22T20:06:48;94634.88;;;15.52;46.96
35676;BME280;21790;42.668;23.298;2023-03-22T20:09:37;94639.50;;;15.61;47.25
35676;BME280;21790;42.668;23.298;2023-03-22T20:20:37;94638.94;;;15.25;47.88
35676;BME280;21790;42.668;23.298;2023-03-22T20:23:03;94642.00;;;15.01;48.75
35676;BME280;21790;42.668;23.298;2023-03-22T20:25:29;94645.78;;;14.98;48.87
35676;BME280;21790;42.668;23.298;2023-03-22T20:27:56;94655.09;;;14.95;48.83
35676;BME280;21790;42.668;23.298;2023-03-22T20:30:24;94645.25;;;14.94;49.18
35676;BME280;21790;42.668;23.298;2023-03-22T20:32:51;94650.06;;;14.94;49.13
35676;BME280;21790;42.668;23.298;2023-03-22T20:35:17;94665.34;;;14.84;49.24
35676;BME280;21790;42.668;23.298;2023-03-22T20:37:46;94655.81;;;14.90;49.24
35676;BME280;21790;42.668;23.298;2023-03-22T20:40:11;94659.00;;;14.78;49.04
35676;BME280;21790;42.668;23.298;2023-03-22T20:48:36;94656.31;;;15.77;52.24
